createdAt,value
2023-03-16T00:01:25.250Z,1.92
2023-03-16T00:04:29.239Z,2.05
2023-03-16T00:07:32.460Z,2.47
2023-03-16T00:10:36.725Z,2.00
2023-03-16T00:13:40.127Z,2.15
2023-03-16T00:16:43.595Z,2.03
2023-03-16T00:19:55.515Z,2.03
2023-03-16T00:22:59.476Z,2.28
2023-03-16T00:26:08.258Z,2.50
2023-03-16T00:29:12.144Z,2.12
2023-03-16T00:32:18.041Z,2.97
2023-03-16T00:35:21.753Z,2.25
2023-03-16T00:38:24.767Z,2.37
2023-03-16T00:41:29.088Z,2.53
2023-03-16T00:44:32.528Z,2.58
2023-03-16T00:47:36.473Z,2.40
2023-03-16T00:50:39.912Z,3.05
2023-03-16T00:53:45.040Z,2.20
2023-03-16T00:56:48.754Z,2.50
2023-03-16T00:59:52.934Z,2.37
2023-03-16T01:02:58.434Z,2.62
2023-03-16T01:06:06.826Z,2.37
2023-03-16T01:09:10.425Z,2.30
2023-03-16T01:12:17.907Z,2.70
2023-03-16T01:15:21.261Z,2.40
2023-03-16T01:18:26.020Z,2.40
2023-03-16T01:21:30.077Z,2.40
2023-03-16T01:24:35.032Z,2.00
2023-03-16T01:27:39.104Z,2.57
2023-03-16T01:30:43.851Z,2.62
2023-03-16T01:33:47.592Z,2.50
2023-03-16T01:36:51.812Z,2.30
2023-03-16T01:39:57.847Z,2.70
2023-03-16T01:43:04.650Z,2.35
2023-03-16T01:46:18.433Z,2.37
2023-03-16T01:49:28.437Z,2.37
2023-03-16T01:52:36.610Z,2.37
2023-03-16T01:55:41.779Z,2.30
2023-03-16T01:58:46.260Z,2.30
2023-03-16T02:01:51.930Z,2.35
2023-03-16T02:05:09.034Z,2.30
2023-03-16T02:08:13.320Z,2.50
2023-03-16T02:11:18.266Z,2.42
2023-03-16T02:14:21.954Z,2.10
2023-03-16T02:17:28.966Z,2.80
2023-03-16T02:21:15.817Z,2.67
2023-03-16T02:24:19.305Z,2.87
2023-03-16T02:27:35.320Z,2.70
2023-03-16T02:30:39.071Z,2.60
2023-03-16T02:33:45.155Z,2.15
2023-03-16T02:36:52.416Z,2.72
2023-03-16T02:39:57.264Z,2.70
2023-03-16T02:43:02.956Z,2.72
2023-03-16T02:46:08.493Z,2.50
2023-03-16T02:49:34.210Z,2.97
2023-03-16T02:52:38.739Z,2.97
2023-03-16T02:55:42.293Z,2.10
2023-03-16T02:58:45.458Z,2.55
2023-03-16T03:01:50.324Z,2.60
2023-03-16T03:04:54.722Z,3.65
2023-03-16T03:07:58.391Z,2.80
2023-03-16T03:11:02.127Z,3.20
2023-03-16T03:14:05.683Z,3.47
2023-03-16T03:17:10.536Z,2.95
2023-03-16T03:20:16.690Z,3.30
2023-03-16T03:23:20.276Z,3.07
2023-03-16T03:26:24.704Z,3.12
2023-03-16T03:29:34.780Z,3.20
2023-03-16T03:32:39.073Z,3.83
2023-03-16T03:35:42.316Z,3.12
2023-03-16T03:38:46.348Z,3.85
2023-03-16T03:41:49.524Z,3.65
2023-03-16T03:44:53.934Z,4.32
2023-03-16T03:47:58.302Z,3.50
2023-03-16T03:51:02.261Z,4.22
2023-03-16T03:54:09.426Z,3.97
2023-03-16T03:57:15.155Z,3.90
2023-03-16T04:00:21.056Z,3.75
2023-03-16T04:03:26.366Z,3.60
2023-03-16T04:06:29.779Z,3.72
2023-03-16T04:09:34.240Z,3.40
2023-03-16T04:12:39.575Z,3.92
2023-03-16T04:15:47.064Z,4.37
2023-03-16T04:18:51.786Z,4.07
2023-03-16T04:21:58.013Z,4.00
2023-03-16T04:25:04.082Z,3.77
2023-03-16T04:28:08.832Z,3.95
2023-03-16T04:31:14.210Z,3.72
2023-03-16T04:34:25.857Z,3.67
2023-03-16T04:37:30.460Z,3.60
2023-03-16T04:40:34.362Z,3.78
2023-03-16T04:43:39.348Z,4.55
2023-03-16T04:46:45.063Z,3.62
2023-03-16T04:49:48.794Z,4.68
2023-03-16T04:52:53.136Z,3.90
2023-03-16T04:55:59.083Z,4.20
2023-03-16T04:59:03.606Z,3.62
2023-03-16T05:02:07.153Z,4.35
2023-03-16T05:05:11.947Z,4.50
2023-03-16T05:08:16.305Z,4.35
2023-03-16T05:11:20.880Z,5.10
2023-03-16T05:14:24.404Z,6.72
2023-03-16T05:17:28.825Z,5.70
2023-03-16T05:20:32.900Z,4.82
2023-03-16T05:23:36.955Z,4.40
2023-03-16T05:26:40.383Z,4.30
2023-03-16T05:29:47.570Z,4.35
2023-03-16T05:32:51.679Z,4.45
2023-03-16T05:35:55.548Z,5.07
2023-03-16T05:38:59.586Z,4.50
2023-03-16T05:42:04.018Z,4.57
2023-03-16T05:45:08.987Z,4.15
2023-03-16T05:48:12.876Z,3.95
2023-03-16T05:51:19.585Z,4.75
2023-03-16T05:54:23.314Z,5.50
2023-03-16T05:57:26.712Z,4.87
2023-03-16T06:00:32.033Z,5.30
2023-03-16T06:03:36.785Z,4.72
2023-03-16T06:06:40.982Z,4.73
2023-03-16T06:09:46.869Z,4.70
2023-03-16T06:12:51.683Z,3.60
2023-03-16T06:15:55.717Z,3.45
2023-03-16T06:19:00.124Z,4.07
2023-03-16T06:22:04.845Z,3.37
2023-03-16T06:25:10.087Z,6.90
2023-03-16T06:28:14.534Z,3.03
2023-03-16T06:31:17.884Z,5.75
2023-03-16T06:34:22.772Z,5.82
2023-03-16T06:37:26.109Z,6.43
2023-03-16T06:40:31.192Z,7.43
2023-03-16T06:43:34.846Z,5.10
2023-03-16T06:46:38.768Z,3.72
2023-03-16T06:49:43.452Z,2.95
2023-03-16T06:52:49.413Z,3.47
2023-03-16T06:55:52.639Z,4.28
2023-03-16T06:58:56.344Z,3.20
2023-03-16T07:01:59.578Z,2.85
2023-03-16T07:05:03.201Z,3.67
2023-03-16T07:08:10.267Z,3.00
2023-03-16T07:11:15.113Z,3.13
2023-03-16T07:14:19.798Z,3.10
2023-03-16T07:17:24.611Z,3.40
2023-03-16T07:20:30.629Z,2.90
2023-03-16T07:23:35.383Z,2.72
2023-03-16T07:26:43.347Z,2.97
2023-03-16T07:29:47.974Z,3.50
2023-03-16T07:32:51.937Z,3.97
2023-03-16T07:35:56.015Z,3.40
2023-03-16T07:38:59.611Z,2.95
2023-03-16T07:42:04.664Z,3.47
2023-03-16T07:45:09.708Z,3.00
2023-03-16T07:48:13.175Z,2.80
2023-03-16T07:51:17.260Z,3.30
2023-03-16T07:54:24.431Z,3.72
2023-03-16T07:57:28.364Z,3.03
2023-03-16T08:00:33.713Z,3.12
2023-03-16T08:03:46.686Z,3.25
2023-03-16T08:06:52.854Z,2.92
2023-03-16T08:09:56.719Z,2.78
2023-03-16T08:13:01.471Z,3.40
2023-03-16T08:16:10.908Z,3.35
2023-03-16T08:19:14.911Z,3.08
2023-03-16T08:22:19.157Z,2.75
2023-03-16T08:25:23.381Z,2.50
2023-03-16T08:28:29.860Z,2.80
2023-03-16T08:31:35.434Z,2.90
2023-03-16T08:34:40.718Z,2.95
2023-03-16T08:37:46.574Z,3.00
2023-03-16T08:40:51.116Z,3.00
2023-03-16T08:43:56.542Z,3.03
2023-03-16T08:47:00.192Z,2.90
2023-03-16T08:50:06.187Z,3.00
2023-03-16T08:53:11.204Z,2.65
2023-03-16T08:56:15.406Z,3.10
2023-03-16T08:59:29.023Z,3.13
2023-03-16T09:02:33.368Z,2.83
2023-03-16T09:05:37.276Z,3.20
2023-03-16T09:08:41.731Z,3.00
2023-03-16T09:11:45.541Z,2.78
2023-03-16T09:14:49.342Z,2.80
2023-03-16T09:17:54.512Z,3.10
2023-03-16T09:21:04.060Z,3.28
2023-03-16T09:24:09.723Z,1.87
2023-03-16T09:27:13.575Z,2.60
2023-03-16T09:30:18.298Z,1.83
2023-03-16T09:33:24.836Z,2.25
2023-03-16T09:36:28.599Z,2.03
2023-03-16T09:39:32.136Z,1.77
2023-03-16T09:42:52.313Z,1.95
2023-03-16T09:46:20.117Z,2.00
2023-03-16T09:49:27.673Z,2.17
2023-03-16T09:52:39.819Z,2.25
2023-03-16T09:55:49.049Z,1.50
2023-03-16T09:58:52.796Z,1.95
2023-03-16T10:02:28.483Z,1.70
2023-03-16T10:05:33.836Z,1.60
2023-03-16T10:08:50.034Z,1.75
2023-03-16T10:11:58.814Z,1.95
2023-03-16T10:15:08.230Z,1.73
2023-03-16T10:18:21.157Z,1.90
2023-03-16T10:21:24.947Z,1.85
2023-03-16T10:24:57.925Z,1.60
2023-03-16T10:28:02.304Z,1.40
2023-03-16T10:31:05.946Z,1.83
2023-03-16T10:34:10.932Z,2.00
2023-03-16T10:37:14.983Z,1.55
2023-03-16T10:40:20.470Z,2.00
2023-03-16T10:43:25.289Z,2.00
2023-03-16T10:46:28.992Z,1.67
2023-03-16T10:49:45.400Z,1.97
2023-03-16T10:52:51.061Z,1.77
2023-03-16T10:56:02.544Z,1.50
2023-03-16T10:59:26.935Z,1.65
2023-03-16T11:02:33.470Z,1.40
2023-03-16T11:05:36.713Z,1.30
2023-03-16T11:08:41.566Z,1.37
2023-03-16T11:11:51.423Z,1.48
2023-03-16T11:14:56.325Z,1.35
2023-03-16T11:17:59.558Z,1.30
2023-03-16T11:21:49.717Z,1.20
2023-03-16T11:24:55.904Z,1.35
2023-03-16T11:28:32.953Z,1.20
2023-03-16T11:31:54.130Z,1.20
2023-03-16T11:34:57.746Z,1.17
2023-03-16T11:38:21.902Z,1.40
2023-03-16T11:42:01.298Z,1.40
2023-03-16T11:45:31.117Z,1.40
2023-03-16T11:48:49.661Z,1.62
2023-03-16T11:52:05.314Z,6.57
2023-03-16T11:55:11.769Z,1.70
2023-03-16T11:58:22.566Z,1.42
2023-03-16T12:01:54.364Z,1.20
2023-03-16T12:05:24.757Z,1.10
2023-03-16T12:08:47.900Z,1.20
2023-03-16T12:12:07.092Z,0.90
2023-03-16T12:15:30.194Z,1.08
2023-03-16T12:19:07.175Z,0.88
2023-03-16T12:22:40.117Z,1.10
2023-03-16T12:25:47.807Z,1.15
2023-03-16T12:28:54.466Z,1.10
2023-03-16T12:32:19.026Z,1.00
2023-03-16T12:35:37.664Z,1.42
2023-03-16T12:38:46.066Z,0.98
2023-03-16T12:41:58.648Z,1.02
2023-03-16T12:45:08.114Z,0.90
2023-03-16T12:48:40.580Z,0.90
2023-03-16T12:51:44.429Z,1.40
2023-03-16T12:55:16.270Z,1.20
2023-03-16T12:58:19.859Z,1.10
2023-03-16T13:01:29.533Z,1.30
2023-03-16T13:04:38.837Z,1.17
2023-03-16T13:07:50.749Z,1.45
2023-03-16T13:11:07.403Z,1.17
2023-03-16T13:14:17.162Z,0.65
2023-03-16T13:17:20.600Z,3.83
2023-03-16T13:20:32.233Z,2.20
2023-03-16T13:23:57.618Z,3.72
2023-03-16T13:27:12.063Z,2.10
2023-03-16T13:30:29.956Z,1.50
2023-03-16T13:33:38.347Z,1.10
2023-03-16T13:36:45.351Z,0.90
2023-03-16T13:39:55.035Z,1.02
2023-03-16T13:43:00.956Z,1.00
2023-03-16T13:46:19.061Z,1.30
2023-03-16T13:49:23.102Z,1.27
2023-03-16T13:52:34.902Z,1.52
2023-03-16T13:55:38.978Z,2.45
2023-03-16T13:58:47.607Z,1.35
2023-03-16T14:01:59.819Z,1.37
2023-03-16T14:05:27.710Z,1.20
2023-03-16T14:08:31.733Z,1.02
2023-03-16T14:11:35.419Z,0.98
2023-03-16T14:14:41.430Z,3.65
2023-03-16T14:17:45.275Z,1.15
2023-03-16T14:20:55.514Z,1.30
2023-03-16T14:24:02.244Z,1.23
2023-03-16T14:27:18.017Z,2.10
2023-03-16T14:30:27.822Z,2.00
2023-03-16T14:33:37.851Z,1.90
2023-03-16T14:36:41.734Z,2.27
2023-03-16T14:39:45.891Z,1.67
2023-03-16T14:42:51.003Z,1.30
2023-03-16T14:45:55.387Z,1.30
2023-03-16T14:49:08.854Z,1.45
2023-03-16T14:52:27.903Z,1.30
2023-03-16T14:55:32.337Z,1.05
2023-03-16T14:58:36.569Z,1.00
2023-03-16T15:01:39.938Z,0.88
2023-03-16T15:04:43.584Z,1.48
2023-03-16T15:07:47.199Z,1.70
2023-03-16T15:10:50.982Z,1.40
2023-03-16T15:14:04.166Z,1.50
2023-03-16T15:17:08.294Z,1.90
2023-03-16T15:20:16.817Z,1.33
2023-03-16T15:23:21.334Z,1.00
2023-03-16T15:26:29.929Z,0.93
2023-03-16T15:29:33.063Z,1.00
2023-03-16T15:32:36.519Z,1.20
2023-03-16T15:35:42.128Z,1.10
2023-03-16T15:38:48.933Z,1.10
2023-03-16T15:41:52.778Z,1.10
2023-03-16T15:44:56.307Z,1.10
2023-03-16T15:47:59.659Z,1.10
2023-03-16T15:51:08.730Z,1.33
2023-03-16T15:54:12.595Z,1.60
2023-03-16T15:57:16.213Z,1.35
2023-03-16T16:00:33.293Z,1.52
2023-03-16T16:03:36.799Z,1.40
2023-03-16T16:06:40.044Z,1.42
2023-03-16T16:09:43.831Z,1.30
2023-03-16T16:12:52.652Z,2.30
2023-03-16T16:15:57.440Z,2.80
2023-03-16T16:19:01.001Z,2.17
2023-03-16T16:22:04.571Z,2.30
2023-03-16T16:25:07.914Z,1.20
2023-03-16T16:28:18.889Z,3.40
2023-03-16T16:31:23.694Z,3.72
2023-03-16T16:34:27.407Z,1.98
2023-03-16T16:37:30.748Z,3.30
2023-03-16T16:40:38.335Z,4.20
2023-03-16T16:43:47.817Z,5.00
2023-03-16T16:46:52.698Z,3.30
2023-03-16T16:49:57.244Z,6.82
2023-03-16T16:53:01.698Z,5.00
2023-03-16T16:56:05.825Z,4.80
2023-03-16T16:59:19.311Z,4.37
2023-03-16T17:02:38.777Z,3.92
2023-03-16T17:05:43.161Z,3.27
2023-03-16T17:08:47.867Z,3.83
2023-03-16T17:11:54.638Z,3.08
2023-03-16T17:14:58.408Z,2.80
2023-03-16T17:18:17.901Z,5.45
2023-03-16T17:21:25.298Z,5.85
2023-03-16T17:24:30.205Z,5.05
2023-03-16T17:27:33.796Z,4.35
2023-03-16T17:30:38.435Z,4.40
2023-03-16T17:33:42.509Z,3.67
2023-03-16T17:36:47.012Z,4.90
2023-03-16T17:39:53.962Z,5.53
2023-03-16T17:42:59.280Z,5.43
2023-03-16T17:46:05.445Z,4.33
2023-03-16T17:49:21.277Z,4.18
2023-03-16T17:52:27.123Z,5.25
2023-03-16T17:55:32.920Z,4.35
2023-03-16T17:58:37.804Z,4.82
2023-03-16T18:01:43.980Z,5.15
2023-03-16T18:04:49.357Z,4.32
2023-03-16T18:07:54.792Z,4.10
2023-03-16T18:11:12.414Z,5.55
2023-03-16T18:14:37.171Z,5.72
2023-03-16T18:17:41.178Z,6.17
2023-03-16T18:20:46.798Z,5.87
2023-03-16T18:23:52.310Z,9.07
2023-03-16T18:26:56.579Z,9.68
2023-03-16T18:30:01.281Z,11.18
2023-03-16T18:33:25.492Z,13.77
2023-03-16T18:36:33.534Z,13.13
2023-03-16T18:39:38.423Z,17.30
2023-03-16T18:42:45.115Z,18.20
2023-03-16T18:45:50.370Z,20.08
2023-03-16T18:48:58.262Z,16.80
2023-03-16T18:52:04.964Z,15.60
2023-03-16T18:55:22.480Z,14.82
2023-03-16T18:58:27.147Z,13.82
2023-03-16T19:01:34.973Z,15.02
2023-03-16T19:04:42.304Z,13.77
2023-03-16T19:07:52.769Z,14.23
2023-03-16T19:11:03.330Z,13.30
2023-03-16T19:14:25.319Z,16.02
2023-03-16T19:17:31.336Z,16.58
2023-03-16T19:20:37.175Z,17.50
2023-03-16T19:23:43.136Z,15.95
2023-03-16T19:26:48.334Z,14.75
2023-03-16T19:29:55.049Z,14.87
2023-03-16T19:33:01.914Z,16.05
2023-03-16T19:36:14.726Z,16.67
2023-03-16T19:39:22.047Z,19.08
2023-03-16T19:42:37.789Z,15.33
2023-03-16T19:45:44.320Z,16.83
2023-03-16T19:48:49.773Z,19.55
2023-03-16T19:51:56.832Z,20.83
2023-03-16T19:55:01.688Z,20.67
2023-03-16T19:58:08.419Z,21.20
2023-03-16T20:01:19.802Z,22.73
2023-03-16T20:04:26.636Z,29.77
2023-03-16T20:07:35.647Z,29.20
2023-03-16T20:10:39.862Z,27.60
2023-03-16T20:13:45.699Z,22.87
2023-03-16T20:16:50.633Z,23.92
2023-03-16T20:19:57.031Z,23.38
2023-03-16T20:23:03.905Z,23.17
2023-03-16T20:26:26.086Z,23.83
2023-03-16T20:29:38.796Z,22.40
2023-03-16T20:32:44.105Z,23.75
2023-03-16T20:35:50.470Z,21.20
2023-03-16T20:38:54.583Z,23.95
2023-03-16T20:41:59.204Z,22.17
2023-03-16T20:45:03.832Z,21.60
2023-03-16T20:48:18.208Z,17.77
2023-03-16T20:51:22.656Z,16.15
2023-03-16T20:54:26.599Z,17.50
2023-03-16T20:57:30.823Z,17.45
2023-03-16T21:00:39.771Z,15.68
2023-03-16T21:03:44.634Z,12.35
2023-03-16T21:06:51.218Z,12.32
2023-03-16T21:09:54.677Z,12.90
2023-03-16T21:12:59.072Z,12.23
2023-03-16T21:16:05.426Z,10.83
2023-03-16T21:19:14.973Z,9.43
2023-03-16T21:22:28.601Z,10.00
2023-03-16T21:25:45.905Z,10.70
2023-03-16T21:28:56.896Z,15.40
2023-03-16T21:32:01.196Z,15.13
2023-03-16T21:35:04.732Z,13.43
2023-03-16T21:38:16.803Z,12.30
2023-03-16T21:41:20.485Z,11.25
2023-03-16T21:44:24.966Z,12.57
2023-03-16T21:47:29.621Z,18.73
2023-03-16T21:50:36.797Z,21.15
2023-03-16T21:53:40.635Z,18.52
2023-03-16T21:56:46.369Z,10.87
2023-03-16T21:59:50.559Z,10.27
2023-03-16T22:02:57.761Z,8.88
2023-03-16T22:06:01.622Z,7.37
2023-03-16T22:09:04.865Z,6.40
2023-03-16T22:12:12.924Z,5.60
2023-03-16T22:15:16.431Z,6.62
2023-03-16T22:18:19.890Z,5.93
2023-03-16T22:21:37.645Z,6.87
2023-03-16T22:24:41.348Z,6.07
2023-03-16T22:27:44.597Z,6.40
2023-03-16T22:30:48.572Z,6.97
2023-03-16T22:33:51.736Z,6.35
2023-03-16T22:36:55.976Z,8.55
2023-03-16T22:40:01.678Z,7.05
2023-03-16T22:43:12.949Z,8.00
2023-03-16T22:46:23.576Z,7.20
2023-03-16T22:49:28.552Z,8.47
2023-03-16T22:52:34.893Z,7.68
2023-03-16T22:55:40.121Z,8.85
2023-03-16T22:58:49.467Z,8.73
2023-03-16T23:01:54.100Z,7.95
2023-03-16T23:04:57.711Z,7.43
2023-03-16T23:08:02.722Z,9.35
2023-03-16T23:11:05.990Z,8.45
2023-03-16T23:14:21.437Z,9.88
2023-03-16T23:17:25.778Z,8.80
2023-03-16T23:20:32.808Z,9.63
2023-03-16T23:23:37.195Z,9.43
2023-03-16T23:26:40.917Z,8.95
2023-03-16T23:29:44.640Z,8.77
2023-03-16T23:32:50.308Z,8.45
2023-03-16T23:35:53.511Z,8.07
2023-03-16T23:38:56.791Z,7.60
2023-03-16T23:42:00.319Z,5.62
2023-03-16T23:45:10.729Z,6.45
2023-03-16T23:48:20.027Z,5.82
2023-03-16T23:51:39.317Z,5.33
2023-03-16T23:54:43.527Z,6.43
2023-03-16T23:57:47.575Z,5.85
